createdAt,value
2022-07-25T00:01:49.624Z,13.40
2022-07-25T00:03:58.410Z,13.38
2022-07-25T00:06:06.441Z,13.52
2022-07-25T00:08:22.120Z,13.32
2022-07-25T00:10:30.306Z,12.73
2022-07-25T00:12:38.735Z,12.95
2022-07-25T00:14:50.993Z,13.90
2022-07-25T00:16:59.230Z,13.18
2022-07-25T00:19:07.529Z,14.10
2022-07-25T00:21:16.134Z,13.10
2022-07-25T00:23:24.365Z,13.73
2022-07-25T00:25:33.262Z,15.23
2022-07-25T00:27:41.566Z,14.52
2022-07-25T00:29:52.462Z,13.25
2022-07-25T00:32:00.954Z,13.45
2022-07-25T00:34:09.514Z,13.85
2022-07-25T00:36:18.130Z,13.35
2022-07-25T00:38:26.351Z,14.38
2022-07-25T00:40:35.029Z,15.00
2022-07-25T00:42:43.263Z,14.65
2022-07-25T00:44:54.411Z,14.20
2022-07-25T00:47:03.303Z,14.10
2022-07-25T00:49:12.143Z,14.73
2022-07-25T00:51:20.971Z,13.77
2022-07-25T00:53:29.690Z,14.77
2022-07-25T00:55:38.981Z,15.02
2022-07-25T00:57:48.458Z,14.88
2022-07-25T00:59:59.459Z,14.43
2022-07-25T01:02:08.069Z,14.70
2022-07-25T01:04:17.989Z,15.10
2022-07-25T01:06:26.942Z,15.40
2022-07-25T01:08:35.834Z,14.48
2022-07-25T01:10:44.248Z,15.10
2022-07-25T01:12:54.970Z,14.88
2022-07-25T01:15:05.874Z,13.93
2022-07-25T01:17:14.002Z,15.88
2022-07-25T01:19:22.135Z,16.02
2022-07-25T01:21:33.056Z,16.65
2022-07-25T01:23:41.380Z,16.02
2022-07-25T01:25:49.355Z,16.45
2022-07-25T01:27:58.332Z,16.48
2022-07-25T01:30:09.369Z,16.42
2022-07-25T01:32:17.966Z,16.77
2022-07-25T01:34:25.967Z,17.85
2022-07-25T01:36:37.243Z,15.95
2022-07-25T01:38:45.619Z,16.48
2022-07-25T01:40:53.888Z,16.33
2022-07-25T01:43:02.028Z,15.80
2022-07-25T01:45:11.900Z,17.52
2022-07-25T01:47:20.078Z,17.48
2022-07-25T01:49:28.289Z,16.55
2022-07-25T01:51:40.986Z,17.35
2022-07-25T01:53:51.220Z,18.05
2022-07-25T01:56:00.452Z,16.13
2022-07-25T01:58:10.862Z,17.02
2022-07-25T02:00:19.722Z,16.70
2022-07-25T02:02:27.761Z,16.50
2022-07-25T02:04:37.642Z,16.23
2022-07-25T02:06:49.273Z,16.27
2022-07-25T02:08:57.089Z,15.93
2022-07-25T02:11:05.669Z,16.73
2022-07-25T02:13:13.769Z,16.48
2022-07-25T02:15:22.762Z,17.00
2022-07-25T02:17:33.009Z,15.80
2022-07-25T02:19:41.114Z,16.58
2022-07-25T02:21:51.609Z,15.55
2022-07-25T02:24:01.357Z,15.13
2022-07-25T02:26:09.589Z,16.00
2022-07-25T02:28:21.353Z,15.93
2022-07-25T02:30:29.780Z,16.20
2022-07-25T02:32:37.686Z,16.45
2022-07-25T02:34:45.642Z,16.02
2022-07-25T02:36:58.398Z,17.00
2022-07-25T02:39:07.561Z,15.05
2022-07-25T02:41:15.802Z,15.15
2022-07-25T02:43:24.034Z,15.27
2022-07-25T02:45:33.551Z,15.98
2022-07-25T02:47:43.827Z,16.02
2022-07-25T02:49:51.728Z,15.10
2022-07-25T02:52:03.778Z,15.77
2022-07-25T02:54:12.637Z,15.85
2022-07-25T02:56:21.426Z,15.48
2022-07-25T02:58:30.691Z,15.98
2022-07-25T03:00:39.062Z,15.93
2022-07-25T03:02:47.430Z,16.45
2022-07-25T03:04:55.409Z,15.60
2022-07-25T03:07:05.892Z,15.90
2022-07-25T03:09:14.055Z,15.63
2022-07-25T03:11:22.962Z,16.02
2022-07-25T03:13:30.814Z,14.30
2022-07-25T03:15:38.888Z,15.90
2022-07-25T03:17:47.880Z,15.57
2022-07-25T03:19:55.752Z,15.43
2022-07-25T03:22:06.242Z,15.75
2022-07-25T03:24:14.142Z,16.65
2022-07-25T03:26:24.012Z,15.15
2022-07-25T03:28:32.977Z,16.85
2022-07-25T03:30:41.167Z,16.92
2022-07-25T03:32:48.997Z,16.85
2022-07-25T03:34:57.308Z,16.08
2022-07-25T03:37:08.487Z,17.40
2022-07-25T03:39:18.331Z,17.30
2022-07-25T03:41:27.943Z,16.17
2022-07-25T03:43:36.422Z,15.98
2022-07-25T03:45:44.519Z,16.90
2022-07-25T03:47:52.507Z,16.90
2022-07-25T03:50:00.550Z,16.35
2022-07-25T03:52:11.086Z,17.10
2022-07-25T03:54:18.862Z,17.13
2022-07-25T03:56:26.747Z,18.30
2022-07-25T03:58:34.708Z,16.90
2022-07-25T04:00:42.602Z,17.95
2022-07-25T04:02:50.602Z,17.27
2022-07-25T04:04:58.428Z,16.92
2022-07-25T04:07:06.361Z,17.48
2022-07-25T04:09:17.241Z,17.05
2022-07-25T04:11:25.195Z,16.58
2022-07-25T04:13:33.062Z,17.35
2022-07-25T04:15:40.903Z,18.17
2022-07-25T04:17:48.696Z,18.05
2022-07-25T04:19:56.763Z,17.08
2022-07-25T04:22:04.786Z,16.40
2022-07-25T04:24:12.893Z,17.90
2022-07-25T04:26:24.241Z,16.52
2022-07-25T04:28:32.865Z,17.05
2022-07-25T04:30:41.551Z,16.85
2022-07-25T04:32:49.528Z,16.98
2022-07-25T04:34:57.574Z,17.40
2022-07-25T04:37:05.446Z,16.60
2022-07-25T04:39:13.331Z,16.38
2022-07-25T04:41:24.449Z,15.35
2022-07-25T04:43:32.950Z,15.63
2022-07-25T04:45:44.155Z,15.00
2022-07-25T04:47:52.445Z,15.83
2022-07-25T04:50:01.288Z,16.00
2022-07-25T04:52:09.594Z,15.80
2022-07-25T04:54:17.414Z,16.27
2022-07-25T04:56:27.952Z,16.20
2022-07-25T04:58:36.388Z,15.87
2022-07-25T05:00:44.422Z,17.07
2022-07-25T05:02:52.437Z,15.27
2022-07-25T05:05:03.122Z,16.00
2022-07-25T05:07:11.314Z,15.97
2022-07-25T05:09:19.537Z,16.53
2022-07-25T05:11:31.127Z,15.03
2022-07-25T05:13:41.600Z,15.90
2022-07-25T05:15:49.563Z,15.50
2022-07-25T05:18:01.673Z,15.67
2022-07-25T05:20:18.075Z,15.23
2022-07-25T05:22:28.500Z,15.80
2022-07-25T05:24:50.979Z,16.10
2022-07-25T05:27:02.254Z,15.73
2022-07-25T05:29:10.394Z,15.40
2022-07-25T05:31:18.334Z,14.97
2022-07-25T05:33:26.705Z,15.50
2022-07-25T05:35:34.629Z,15.10
2022-07-25T05:37:42.470Z,15.00
2022-07-25T05:39:51.647Z,15.50
2022-07-25T05:42:03.390Z,15.73
2022-07-25T05:44:11.554Z,14.93
2022-07-25T05:46:22.192Z,15.10
2022-07-25T05:48:33.990Z,14.73
2022-07-25T05:50:41.962Z,14.93
2022-07-25T05:52:51.551Z,14.63
2022-07-25T05:55:01.777Z,14.23
2022-07-25T05:57:12.339Z,15.00
2022-07-25T05:59:20.616Z,14.23
2022-07-25T06:01:28.683Z,14.40
2022-07-25T06:03:37.211Z,14.13
2022-07-25T06:05:45.084Z,13.17
2022-07-25T06:07:53.215Z,14.43
2022-07-25T06:10:01.512Z,14.20
2022-07-25T06:12:14.160Z,14.60
2022-07-25T06:14:22.091Z,14.73
2022-07-25T06:16:33.665Z,13.17
2022-07-25T06:18:41.610Z,14.47
2022-07-25T06:20:49.813Z,13.87
2022-07-25T06:22:57.988Z,14.63
2022-07-25T06:25:08.662Z,15.70
2022-07-25T06:27:23.040Z,13.20
2022-07-25T06:29:32.963Z,13.87
2022-07-25T06:31:40.927Z,13.30
2022-07-25T06:33:51.414Z,15.30
2022-07-25T06:35:59.447Z,14.27
2022-07-25T06:38:10.507Z,14.13
2022-07-25T06:40:20.769Z,13.80
2022-07-25T06:42:33.423Z,13.83
2022-07-25T06:44:41.388Z,13.90
2022-07-25T06:46:49.253Z,13.90
2022-07-25T06:48:59.957Z,13.53
2022-07-25T06:51:08.932Z,14.30
2022-07-25T06:53:19.288Z,13.03
2022-07-25T06:55:27.402Z,13.30
2022-07-25T06:57:39.311Z,13.20
2022-07-25T06:59:47.974Z,13.30
2022-07-25T07:01:57.871Z,13.40
2022-07-25T07:04:09.072Z,12.50
2022-07-25T07:06:17.548Z,12.03
2022-07-25T07:08:25.605Z,12.43
2022-07-25T07:10:34.001Z,11.77
2022-07-25T07:12:44.833Z,12.27
2022-07-25T07:14:52.702Z,12.30
2022-07-25T07:17:01.911Z,11.10
2022-07-25T07:19:15.492Z,12.33
2022-07-25T07:21:23.493Z,10.97
2022-07-25T07:23:31.343Z,11.33
2022-07-25T07:25:40.894Z,11.47
2022-07-25T07:27:54.458Z,11.53
2022-07-25T07:30:02.463Z,10.83
2022-07-25T07:32:12.686Z,12.13
2022-07-25T07:34:22.993Z,11.03
2022-07-25T07:38:55.297Z,11.10
2022-07-25T07:41:03.211Z,12.20
2022-07-25T07:43:13.781Z,11.00
2022-07-25T07:45:23.444Z,11.87
2022-07-25T07:47:31.349Z,11.33
2022-07-25T07:49:39.243Z,12.23
2022-07-25T07:51:47.133Z,11.60
2022-07-25T07:54:07.454Z,11.90
2022-07-25T07:56:15.294Z,11.57
2022-07-25T07:58:25.953Z,11.87
2022-07-25T08:00:36.254Z,11.97
2022-07-25T08:02:49.082Z,11.80
2022-07-25T08:04:57.014Z,11.17
2022-07-25T08:07:04.959Z,11.30
2022-07-25T08:09:12.958Z,11.67
2022-07-25T08:11:20.955Z,11.50
2022-07-25T08:13:34.114Z,11.53
2022-07-25T08:15:42.203Z,13.20
2022-07-25T08:17:51.978Z,12.23
2022-07-25T08:20:14.677Z,12.33
2022-07-25T08:22:27.846Z,12.30
2022-07-25T08:24:35.771Z,13.20
2022-07-25T08:26:46.204Z,12.00
2022-07-25T08:29:17.575Z,12.60
2022-07-25T08:31:25.481Z,12.83
2022-07-25T08:33:33.465Z,13.20
2022-07-25T08:35:42.032Z,13.07
2022-07-25T08:37:51.774Z,13.47
2022-07-25T08:40:02.620Z,13.30
2022-07-25T08:42:11.737Z,12.13
2022-07-25T08:44:23.355Z,13.43
2022-07-25T08:46:32.751Z,13.83
2022-07-25T08:48:41.573Z,13.13
2022-07-25T08:50:51.458Z,13.70
2022-07-25T08:53:34.926Z,13.23
2022-07-25T08:55:28.952Z,13.70
2022-07-25T08:57:38.621Z,12.63
2022-07-25T08:59:51.638Z,12.67
2022-07-25T09:02:07.217Z,13.30
2022-07-25T09:04:17.192Z,12.60
2022-07-25T09:06:26.065Z,13.47
2022-07-25T09:08:34.162Z,13.33
2022-07-25T09:10:43.568Z,13.00
2022-07-25T09:12:56.456Z,12.53
2022-07-25T09:15:09.289Z,12.73
2022-07-25T09:17:22.331Z,11.80
2022-07-25T09:19:31.952Z,12.43
2022-07-25T09:21:39.965Z,11.30
2022-07-25T09:23:49.802Z,11.10
2022-07-25T09:26:05.483Z,11.43
2022-07-25T09:28:18.260Z,10.90
2022-07-25T09:30:29.272Z,11.23
2022-07-25T09:32:37.176Z,9.70
2022-07-25T09:34:47.757Z,10.80
2022-07-25T09:36:56.539Z,10.10
2022-07-25T09:39:06.663Z,9.50
2022-07-25T09:41:14.593Z,9.80
2022-07-25T09:43:24.669Z,8.67
2022-07-25T09:45:37.073Z,9.50
2022-07-25T09:47:57.437Z,10.27
2022-07-25T09:50:07.869Z,10.30
2022-07-25T09:52:17.409Z,9.47
2022-07-25T09:54:25.346Z,9.70
2022-07-25T09:56:33.231Z,9.23
2022-07-25T09:58:41.446Z,9.73
2022-07-25T10:00:53.439Z,10.10
2022-07-25T10:03:21.134Z,9.53
2022-07-25T10:05:43.094Z,9.77
2022-07-25T10:07:53.742Z,10.40
2022-07-25T10:10:02.915Z,9.77
2022-07-25T10:12:13.370Z,11.00
2022-07-25T10:14:21.306Z,10.17
2022-07-25T10:16:31.929Z,10.27
2022-07-25T10:18:53.538Z,10.67
2022-07-25T10:21:25.551Z,10.20
2022-07-25T10:23:34.525Z,10.20
2022-07-25T10:25:47.104Z,10.93
2022-07-25T10:28:04.191Z,10.07
2022-07-25T10:30:25.053Z,10.50
2022-07-25T10:32:38.810Z,10.03
2022-07-25T10:34:55.318Z,9.80
2022-07-25T10:37:14.810Z,10.33
2022-07-25T10:39:25.193Z,10.80
2022-07-25T10:41:38.386Z,10.50
2022-07-25T10:43:49.662Z,10.83
2022-07-25T10:46:01.188Z,10.10
2022-07-25T10:48:23.491Z,10.33
2022-07-25T10:50:54.459Z,10.83
2022-07-25T10:53:09.287Z,10.50
2022-07-25T10:55:26.604Z,10.13
2022-07-25T10:57:34.682Z,11.80
2022-07-25T10:59:42.971Z,11.73
2022-07-25T11:01:55.091Z,11.80
2022-07-25T11:04:17.357Z,11.10
2022-07-25T11:06:38.316Z,11.00
2022-07-25T11:08:47.353Z,10.67
2022-07-25T11:10:55.909Z,10.67
2022-07-25T11:13:04.012Z,10.90
2022-07-25T11:15:17.202Z,10.70
2022-07-25T11:17:27.296Z,11.23
2022-07-25T11:19:38.074Z,10.93
2022-07-25T11:21:48.712Z,10.70
2022-07-25T11:24:01.855Z,11.30
2022-07-25T11:26:12.162Z,11.60
2022-07-25T11:28:20.075Z,9.57
2022-07-25T11:30:30.945Z,10.87
2022-07-25T11:32:45.175Z,10.90
2022-07-25T11:34:57.297Z,11.27
2022-07-25T11:37:10.058Z,10.37
2022-07-25T11:39:19.257Z,12.00
2022-07-25T11:41:33.578Z,12.10
2022-07-25T11:43:41.421Z,11.30
2022-07-25T11:46:00.495Z,11.90
2022-07-25T11:48:11.030Z,10.90
2022-07-25T11:50:32.629Z,8.77
2022-07-25T11:52:42.516Z,7.90
2022-07-25T11:55:00.501Z,11.40
2022-07-25T11:57:09.071Z,10.93
2022-07-25T11:59:17.162Z,12.03
2022-07-25T12:01:25.172Z,11.77
2022-07-25T12:03:42.330Z,11.77
2022-07-25T12:05:53.151Z,10.90
2022-07-25T12:08:01.944Z,10.97
2022-07-25T12:10:13.494Z,10.80
2022-07-25T12:12:23.008Z,12.33
2022-07-25T12:14:35.267Z,10.90
2022-07-25T12:16:45.377Z,11.70
2022-07-25T12:18:54.408Z,11.70
2022-07-25T12:21:05.375Z,11.80
2022-07-25T12:23:14.790Z,12.30
2022-07-25T12:25:26.328Z,10.87
2022-07-25T12:27:39.328Z,11.37
2022-07-25T12:29:50.076Z,12.00
2022-07-25T12:31:58.263Z,10.70
2022-07-25T12:34:08.543Z,10.10
2022-07-25T12:36:22.587Z,10.73
2022-07-25T12:38:30.460Z,10.90
2022-07-25T12:40:41.417Z,10.70
2022-07-25T12:42:51.780Z,10.30
2022-07-25T12:44:59.660Z,11.00
2022-07-25T12:47:07.617Z,9.57
2022-07-25T12:49:15.910Z,10.00
2022-07-25T12:51:27.101Z,9.70
2022-07-25T12:53:37.860Z,8.50
2022-07-25T12:55:49.781Z,8.80
2022-07-25T12:57:58.225Z,9.40
2022-07-25T13:00:08.828Z,9.67
2022-07-25T13:02:17.565Z,9.03
2022-07-25T13:04:26.196Z,9.20
2022-07-25T13:06:38.759Z,8.90
2022-07-25T13:08:47.163Z,8.53
2022-07-25T13:10:55.776Z,8.90
2022-07-25T13:13:03.824Z,9.40
2022-07-25T13:15:13.582Z,8.90
2022-07-25T13:17:27.247Z,9.20
2022-07-25T13:19:35.542Z,8.77
2022-07-25T13:21:46.970Z,9.13
2022-07-25T13:23:54.890Z,8.73
2022-07-25T13:26:03.155Z,8.67
2022-07-25T13:28:11.312Z,9.13
2022-07-25T13:30:19.768Z,8.93
2022-07-25T13:32:28.610Z,8.90
2022-07-25T13:34:36.871Z,9.60
2022-07-25T13:36:47.946Z,8.93
2022-07-25T13:38:59.318Z,9.67
2022-07-25T13:41:07.410Z,9.70
2022-07-25T13:43:16.507Z,9.70
2022-07-25T13:45:27.487Z,9.80
2022-07-25T13:47:36.315Z,9.60
2022-07-25T13:49:45.643Z,9.03
2022-07-25T13:51:56.136Z,9.30
2022-07-25T13:54:05.029Z,9.30
2022-07-25T13:56:14.580Z,9.33
2022-07-25T13:58:22.550Z,10.10
2022-07-25T14:00:30.653Z,9.80
2022-07-25T14:02:38.603Z,8.77
2022-07-25T14:04:49.189Z,9.50
2022-07-25T14:06:59.673Z,9.50
2022-07-25T14:09:08.099Z,9.70
2022-07-25T14:11:16.960Z,8.90
2022-07-25T14:13:24.925Z,9.33
2022-07-25T14:15:37.837Z,9.40
2022-07-25T14:17:46.111Z,8.43
2022-07-25T14:19:54.010Z,9.70
2022-07-25T14:22:06.808Z,9.60
2022-07-25T14:24:14.436Z,10.00
2022-07-25T14:26:22.588Z,8.97
2022-07-25T14:28:30.950Z,9.00
2022-07-25T14:30:38.832Z,9.53
2022-07-25T14:32:47.328Z,9.73
2022-07-25T14:34:55.387Z,10.77
2022-07-25T14:37:06.177Z,11.57
2022-07-25T14:39:15.275Z,54.80
2022-07-25T14:41:23.449Z,13.60
2022-07-25T14:43:31.934Z,11.60
2022-07-25T14:45:40.392Z,11.00
2022-07-25T14:47:48.465Z,10.40
2022-07-25T14:49:56.934Z,12.37
2022-07-25T14:52:11.439Z,10.70
2022-07-25T14:54:20.298Z,11.40
2022-07-25T14:56:28.313Z,11.50
2022-07-25T14:58:38.317Z,11.70
2022-07-25T15:00:46.533Z,10.80
2022-07-25T15:02:54.452Z,11.10
2022-07-25T15:05:02.338Z,11.20
2022-07-25T15:07:14.242Z,11.60
2022-07-25T15:09:24.454Z,11.67
2022-07-25T15:11:32.617Z,11.20
2022-07-25T15:13:40.701Z,11.47
2022-07-25T15:15:48.900Z,11.27
2022-07-25T15:17:56.762Z,11.60
2022-07-25T15:20:04.804Z,11.80
2022-07-25T15:22:15.547Z,11.23
2022-07-25T15:24:28.728Z,10.97
2022-07-25T15:26:37.270Z,11.50
2022-07-25T15:28:45.120Z,11.27
2022-07-25T15:30:53.137Z,11.23
2022-07-25T15:33:01.076Z,12.20
2022-07-25T15:35:10.204Z,11.27
2022-07-25T15:37:22.046Z,11.00
2022-07-25T15:39:30.220Z,11.07
2022-07-25T15:41:38.635Z,12.00
2022-07-25T15:43:46.520Z,11.57
2022-07-25T15:45:54.753Z,10.50
2022-07-25T15:48:03.942Z,11.40
2022-07-25T15:50:12.972Z,11.60
2022-07-25T15:52:24.755Z,11.67
2022-07-25T15:54:32.787Z,11.33
2022-07-25T15:56:40.696Z,11.80
2022-07-25T15:58:50.500Z,11.50
2022-07-25T16:00:58.414Z,11.50
2022-07-25T16:03:08.061Z,11.10
2022-07-25T16:05:18.127Z,11.40
2022-07-25T16:07:31.119Z,10.70
2022-07-25T16:09:39.996Z,12.47
2022-07-25T16:11:48.302Z,11.33
2022-07-25T16:13:56.680Z,11.30
2022-07-25T16:16:04.761Z,10.67
2022-07-25T16:18:12.713Z,11.07
2022-07-25T16:20:23.165Z,11.50
2022-07-25T16:22:33.863Z,11.33
2022-07-25T16:24:42.812Z,11.67
2022-07-25T16:26:50.951Z,10.53
2022-07-25T16:28:58.809Z,11.50
2022-07-25T16:31:07.883Z,13.07
2022-07-25T16:33:15.791Z,11.70
2022-07-25T16:35:24.406Z,11.37
2022-07-25T16:37:34.970Z,11.27
2022-07-25T16:39:44.980Z,11.40
2022-07-25T16:41:55.447Z,12.10
2022-07-25T16:44:03.445Z,11.43
2022-07-25T16:46:11.996Z,11.03
2022-07-25T16:48:19.936Z,11.70
2022-07-25T16:50:27.844Z,11.57
2022-07-25T16:52:38.492Z,10.93
2022-07-25T16:54:46.630Z,10.40
2022-07-25T16:56:57.312Z,10.20
2022-07-25T16:59:08.147Z,10.63
2022-07-25T17:01:17.259Z,11.13
2022-07-25T17:03:25.717Z,9.53
2022-07-25T17:05:33.768Z,10.67
2022-07-25T17:07:44.386Z,10.83
2022-07-25T17:09:52.323Z,9.77
2022-07-25T17:12:00.192Z,10.50
2022-07-25T17:14:09.779Z,10.50
2022-07-25T17:16:18.045Z,10.13
2022-07-25T17:18:27.656Z,9.30
2022-07-25T17:20:35.556Z,9.73
2022-07-25T17:22:46.651Z,10.30
2022-07-25T17:24:54.605Z,9.97
2022-07-25T17:27:03.543Z,9.50
2022-07-25T17:29:11.620Z,10.43
2022-07-25T17:31:19.717Z,8.80
2022-07-25T17:33:28.481Z,9.23
2022-07-25T17:35:37.829Z,9.67
2022-07-25T17:37:49.616Z,10.50
2022-07-25T17:39:57.716Z,9.47
2022-07-25T17:42:08.030Z,9.20
2022-07-25T17:44:16.773Z,9.17
2022-07-25T17:46:25.143Z,9.60
2022-07-25T17:48:35.321Z,9.27
2022-07-25T17:50:45.425Z,8.40
2022-07-25T17:53:02.430Z,9.10
2022-07-25T17:55:12.113Z,9.10
2022-07-25T17:57:20.608Z,9.03
2022-07-25T17:59:28.766Z,8.30
2022-07-25T18:01:37.225Z,8.87
2022-07-25T18:03:47.590Z,9.10
2022-07-25T18:05:55.542Z,8.90
2022-07-25T18:08:08.939Z,8.60
2022-07-25T18:10:21.288Z,8.87
2022-07-25T18:12:29.598Z,8.47
2022-07-25T18:14:37.515Z,8.30
2022-07-25T18:16:48.237Z,9.47
2022-07-25T18:18:56.194Z,9.10
2022-07-25T18:21:05.751Z,9.83
2022-07-25T18:23:16.879Z,8.40
2022-07-25T18:25:26.164Z,9.40
2022-07-25T18:27:34.298Z,7.50
2022-07-25T18:29:42.513Z,8.43
2022-07-25T18:31:51.014Z,8.80
2022-07-25T18:33:58.813Z,9.13
2022-07-25T18:36:08.559Z,8.77
2022-07-25T18:38:19.768Z,8.53
2022-07-25T18:40:29.035Z,8.43
2022-07-25T18:42:39.227Z,9.13
2022-07-25T18:44:47.522Z,9.27
2022-07-25T18:46:55.392Z,8.47
2022-07-25T18:49:05.971Z,9.07
2022-07-25T18:51:14.326Z,9.40
2022-07-25T18:53:24.789Z,8.70
2022-07-25T18:55:33.335Z,7.90
2022-07-25T18:57:41.318Z,9.23
2022-07-25T18:59:49.392Z,7.47
2022-07-25T19:01:58.095Z,7.63
2022-07-25T19:04:06.904Z,7.40
2022-07-25T19:06:15.211Z,7.63
2022-07-25T19:08:27.008Z,7.20
2022-07-25T19:10:35.428Z,6.90
2022-07-25T19:12:45.783Z,6.80
2022-07-25T19:14:53.731Z,6.57
2022-07-25T19:17:04.541Z,7.50
2022-07-25T19:19:12.877Z,6.60
2022-07-25T19:21:20.950Z,6.57
2022-07-25T19:23:31.921Z,6.10
2022-07-25T19:25:40.134Z,7.10
2022-07-25T19:27:51.352Z,6.00
2022-07-25T19:30:00.341Z,6.00
2022-07-25T19:32:09.245Z,6.43
2022-07-25T19:34:20.170Z,5.60
2022-07-25T19:36:28.019Z,5.50
2022-07-25T19:38:38.703Z,6.30
2022-07-25T19:40:46.865Z,5.80
2022-07-25T19:42:54.896Z,5.03
2022-07-25T19:45:02.892Z,5.40
2022-07-25T19:47:12.024Z,5.70
2022-07-25T19:49:41.860Z,4.93
2022-07-25T19:51:55.105Z,5.50
2022-07-25T19:54:08.444Z,4.97
2022-07-25T19:56:23.353Z,5.20
2022-07-25T19:58:34.188Z,5.00
2022-07-25T20:00:46.204Z,5.50
2022-07-25T20:02:54.956Z,5.70
2022-07-25T20:05:05.254Z,4.75
2022-07-25T20:07:13.076Z,4.60
2022-07-25T20:09:24.010Z,5.10
2022-07-25T20:11:32.343Z,5.60
2022-07-25T20:13:40.281Z,5.30
2022-07-25T20:15:48.263Z,4.80
2022-07-25T20:17:57.317Z,4.75
2022-07-25T20:20:07.813Z,5.40
2022-07-25T20:22:15.721Z,5.10
2022-07-25T20:24:27.391Z,4.88
2022-07-25T20:26:36.868Z,5.10
2022-07-25T20:28:47.117Z,5.32
2022-07-25T20:30:56.224Z,5.20
2022-07-25T20:33:08.002Z,4.60
2022-07-25T20:35:18.432Z,4.75
2022-07-25T20:37:26.426Z,4.50
2022-07-25T20:39:39.933Z,4.45
2022-07-25T20:41:47.965Z,4.80
2022-07-25T20:43:58.069Z,4.40
2022-07-25T20:46:09.265Z,4.90
2022-07-25T20:48:19.691Z,4.60
2022-07-25T20:50:29.178Z,4.78
2022-07-25T20:52:37.084Z,4.95
2022-07-25T20:55:00.053Z,4.65
2022-07-25T20:57:11.630Z,4.45
2022-07-25T20:59:20.045Z,6.05
2022-07-25T21:01:29.815Z,4.80
2022-07-25T21:03:38.996Z,5.45
2022-07-25T21:05:46.958Z,4.63
2022-07-25T21:07:55.340Z,4.00
2022-07-25T21:10:05.891Z,4.20
2022-07-25T21:12:14.089Z,4.68
2022-07-25T21:14:21.967Z,4.55
2022-07-25T21:16:35.047Z,4.47
2022-07-25T21:18:44.070Z,4.13
2022-07-25T21:20:53.399Z,4.75
2022-07-25T21:23:01.805Z,3.80
2022-07-25T21:25:14.786Z,3.67
2022-07-25T21:27:23.749Z,3.83
2022-07-25T21:29:31.820Z,4.05
2022-07-25T21:31:40.318Z,3.65
2022-07-25T21:33:49.457Z,4.40
2022-07-25T21:35:57.630Z,4.13
2022-07-25T21:38:06.227Z,4.10
2022-07-25T21:40:17.326Z,4.07
2022-07-25T21:42:25.556Z,4.05
2022-07-25T21:44:34.589Z,3.85
2022-07-25T21:46:45.159Z,3.60
2022-07-25T21:49:05.546Z,3.53
2022-07-25T21:51:22.924Z,3.45
2022-07-25T21:53:32.051Z,3.53
2022-07-25T21:55:44.325Z,3.70
2022-07-25T21:57:52.561Z,3.70
2022-07-25T22:00:00.758Z,3.42
2022-07-25T22:02:09.101Z,3.80
2022-07-25T22:04:18.107Z,3.50
2022-07-25T22:06:26.467Z,3.03
2022-07-25T22:08:36.765Z,3.35
2022-07-25T22:10:47.941Z,3.85
2022-07-25T22:12:56.781Z,3.35
2022-07-25T22:15:05.063Z,3.35
2022-07-25T22:17:13.777Z,3.33
2022-07-25T22:19:22.611Z,3.10
2022-07-25T22:21:31.065Z,3.45
2022-07-25T22:23:39.036Z,3.20
2022-07-25T22:25:50.190Z,3.30
2022-07-25T22:27:58.544Z,3.67
2022-07-25T22:30:08.673Z,3.22
2022-07-25T22:32:17.129Z,3.47
2022-07-25T22:34:25.356Z,3.17
2022-07-25T22:36:33.781Z,3.10
2022-07-25T22:38:43.282Z,3.35
2022-07-25T22:40:55.245Z,3.40
2022-07-25T22:43:03.539Z,3.30
2022-07-25T22:45:13.103Z,2.97
2022-07-25T22:47:21.071Z,3.53
2022-07-25T22:49:29.200Z,3.25
2022-07-25T22:51:37.589Z,3.20
2022-07-25T22:53:46.251Z,3.47
2022-07-25T22:55:57.258Z,3.20
2022-07-25T22:58:05.581Z,3.00
2022-07-25T23:00:17.172Z,3.13
2022-07-25T23:02:27.795Z,3.20
2022-07-25T23:04:36.021Z,3.38
2022-07-25T23:06:44.042Z,3.35
2022-07-25T23:08:53.177Z,3.30
2022-07-25T23:11:06.168Z,3.20
2022-07-25T23:13:14.599Z,3.97
2022-07-25T23:15:22.870Z,3.72
2022-07-25T23:17:34.889Z,3.70
2022-07-25T23:19:43.582Z,3.72
2022-07-25T23:21:51.781Z,3.25
2022-07-25T23:24:00.522Z,3.50
2022-07-25T23:26:11.206Z,4.00
2022-07-25T23:28:19.919Z,4.00
2022-07-25T23:30:27.872Z,3.60
2022-07-25T23:32:37.066Z,4.07
2022-07-25T23:34:46.822Z,4.70
2022-07-25T23:36:54.946Z,3.97
2022-07-25T23:39:03.297Z,3.90
2022-07-25T23:41:14.736Z,3.85
2022-07-25T23:43:56.413Z,3.33
2022-07-25T23:45:51.146Z,3.53
2022-07-25T23:47:59.808Z,3.53
2022-07-25T23:50:09.788Z,3.30
2022-07-25T23:52:18.222Z,2.95
2022-07-25T23:54:26.714Z,3.10
2022-07-25T23:56:37.246Z,3.30
2022-07-25T23:58:46.268Z,3.10
